sensor_id;sensor_type;location;lat;lon;timestamp;temperature;humidity
20233;DHT22;37438;55.674;13.074;2022-09-09T00:03:18;12.80;99.90
20233;DHT22;37438;55.674;13.074;2022-09-09T00:06:30;12.80;99.90
20233;DHT22;37438;55.674;13.074;2022-09-09T00:09:44;12.80;99.90
20233;DHT22;37438;55.674;13.074;2022-09-09T00:13:03;12.90;99.90
20233;DHT22;37438;55.674;13.074;2022-09-09T00:19:48;13.00;99.90
20233;DHT22;37438;55.674;13.074;2022-09-09T00:29:54;13.00;99.90
20233;DHT22;37438;55.674;13.074;2022-09-09T00:33:03;13.10;99.90
20233;DHT22;37438;55.674;13.074;2022-09-09T00:36:21;13.20;99.90
20233;DHT22;37438;55.674;13.074;2022-09-09T00:39:30;13.10;99.90
20233;DHT22;37438;55.674;13.074;2022-09-09T00:42:42;13.20;99.90
20233;DHT22;37438;55.674;13.074;2022-09-09T00:52:47;13.20;99.90
20233;DHT22;37438;55.674;13.074;2022-09-09T00:59:10;13.10;99.90
20233;DHT22;37438;55.674;13.074;2022-09-09T01:02:50;13.00;99.90
20233;DHT22;37438;55.674;13.074;2022-09-09T01:12:23;13.00;99.90
20233;DHT22;37438;55.674;13.074;2022-09-09T01:15:30;13.00;99.90
20233;DHT22;37438;55.674;13.074;2022-09-09T01:18:40;13.00;99.90
20233;DHT22;37438;55.674;13.074;2022-09-09T01:22:01;13.00;99.90
20233;DHT22;37438;55.674;13.074;2022-09-09T01:25:56;13.00;99.90
20233;DHT22;37438;55.674;13.074;2022-09-09T01:28:58;13.00;99.90
20233;DHT22;37438;55.674;13.074;2022-09-09T01:32:47;13.00;99.90
20233;DHT22;37438;55.674;13.074;2022-09-09T01:35:59;12.90;99.90
20233;DHT22;37438;55.674;13.074;2022-09-09T01:39:14;12.90;99.90
20233;DHT22;37438;55.674;13.074;2022-09-09T01:42:20;12.90;99.90
20233;DHT22;37438;55.674;13.074;2022-09-09T01:45:25;12.80;99.90
20233;DHT22;37438;55.674;13.074;2022-09-09T01:48:29;12.90;99.90
20233;DHT22;37438;55.674;13.074;2022-09-09T01:51:40;12.80;99.90
20233;DHT22;37438;55.674;13.074;2022-09-09T01:54:49;12.80;99.90
20233;DHT22;37438;55.674;13.074;2022-09-09T01:58:27;12.80;99.90
20233;DHT22;37438;55.674;13.074;2022-09-09T02:05:26;12.70;99.90
20233;DHT22;37438;55.674;13.074;2022-09-09T02:08:25;12.70;99.90
20233;DHT22;37438;55.674;13.074;2022-09-09T02:11:38;12.80;99.90
20233;DHT22;37438;55.674;13.074;2022-09-09T02:15:05;12.70;99.90
20233;DHT22;37438;55.674;13.074;2022-09-09T02:18:27;12.70;99.90
20233;DHT22;37438;55.674;13.074;2022-09-09T02:21:32;12.70;99.90
20233;DHT22;37438;55.674;13.074;2022-09-09T02:24:39;12.70;99.90
20233;DHT22;37438;55.674;13.074;2022-09-09T02:27:51;12.60;99.90
20233;DHT22;37438;55.674;13.074;2022-09-09T02:30:58;12.60;99.90
20233;DHT22;37438;55.674;13.074;2022-09-09T02:34:11;12.60;99.90
20233;DHT22;37438;55.674;13.074;2022-09-09T02:37:22;12.70;99.90
20233;DHT22;37438;55.674;13.074;2022-09-09T02:40:31;12.60;99.90
20233;DHT22;37438;55.674;13.074;2022-09-09T02:43:39;12.60;99.90
20233;DHT22;37438;55.674;13.074;2022-09-09T02:47:15;12.60;99.90
20233;DHT22;37438;55.674;13.074;2022-09-09T02:50:35;12.60;99.90
20233;DHT22;37438;55.674;13.074;2022-09-09T02:54:16;12.60;99.90
20233;DHT22;37438;55.674;13.074;2022-09-09T02:57:20;12.70;99.90
20233;DHT22;37438;55.674;13.074;2022-09-09T03:00:27;12.70;99.90
20233;DHT22;37438;55.674;13.074;2022-09-09T03:03:37;12.90;99.90
20233;DHT22;37438;55.674;13.074;2022-09-09T03:06:46;12.80;99.90
20233;DHT22;37438;55.674;13.074;2022-09-09T03:09:56;12.80;99.90
20233;DHT22;37438;55.674;13.074;2022-09-09T03:13:03;12.90;99.90
20233;DHT22;37438;55.674;13.074;2022-09-09T03:16:13;12.90;99.90
20233;DHT22;37438;55.674;13.074;2022-09-09T03:19:23;12.90;99.90
20233;DHT22;37438;55.674;13.074;2022-09-09T03:22:28;12.90;99.90
20233;DHT22;37438;55.674;13.074;2022-09-09T03:25:35;12.90;99.90
20233;DHT22;37438;55.674;13.074;2022-09-09T03:28:40;12.90;99.90
20233;DHT22;37438;55.674;13.074;2022-09-09T03:31:45;12.80;99.90
20233;DHT22;37438;55.674;13.074;2022-09-09T03:34:51;12.80;99.90
20233;DHT22;37438;55.674;13.074;2022-09-09T03:37:56;12.90;99.90
20233;DHT22;37438;55.674;13.074;2022-09-09T03:41:00;12.90;99.90
20233;DHT22;37438;55.674;13.074;2022-09-09T03:44:07;12.90;99.90
20233;DHT22;37438;55.674;13.074;2022-09-09T03:47:20;12.90;99.90
20233;DHT22;37438;55.674;13.074;2022-09-09T03:50:28;12.90;99.90
20233;DHT22;37438;55.674;13.074;2022-09-09T03:53:32;12.90;99.90
20233;DHT22;37438;55.674;13.074;2022-09-09T03:56:38;12.80;99.90
20233;DHT22;37438;55.674;13.074;2022-09-09T03:59:47;12.80;99.90
20233;DHT22;37438;55.674;13.074;2022-09-09T04:02:52;12.80;99.90
20233;DHT22;37438;55.674;13.074;2022-09-09T04:05:59;12.80;99.90
20233;DHT22;37438;55.674;13.074;2022-09-09T04:09:06;12.80;99.90
20233;DHT22;37438;55.674;13.074;2022-09-09T04:12:11;12.70;99.90
20233;DHT22;37438;55.674;13.074;2022-09-09T04:15:17;12.70;99.90
20233;DHT22;37438;55.674;13.074;2022-09-09T04:18:23;12.70;99.90
20233;DHT22;37438;55.674;13.074;2022-09-09T04:21:28;12.80;99.90
20233;DHT22;37438;55.674;13.074;2022-09-09T04:24:32;12.80;99.90
20233;DHT22;37438;55.674;13.074;2022-09-09T04:27:37;12.80;99.90
20233;DHT22;37438;55.674;13.074;2022-09-09T04:30:43;12.80;99.90
20233;DHT22;37438;55.674;13.074;2022-09-09T04:33:52;12.90;99.90
20233;DHT22;37438;55.674;13.074;2022-09-09T04:36:58;12.90;99.90
20233;DHT22;37438;55.674;13.074;2022-09-09T04:40:03;12.90;99.90
20233;DHT22;37438;55.674;13.074;2022-09-09T04:43:09;12.90;99.90
20233;DHT22;37438;55.674;13.074;2022-09-09T04:46:22;12.90;99.90
20233;DHT22;37438;55.674;13.074;2022-09-09T04:49:28;13.00;99.90
20233;DHT22;37438;55.674;13.074;2022-09-09T04:52:34;13.00;99.90
20233;DHT22;37438;55.674;13.074;2022-09-09T04:55:39;13.00;99.90
20233;DHT22;37438;55.674;13.074;2022-09-09T04:58:44;13.00;99.90
20233;DHT22;37438;55.674;13.074;2022-09-09T05:01:50;13.00;99.90
20233;DHT22;37438;55.674;13.074;2022-09-09T05:04:55;13.00;99.90
20233;DHT22;37438;55.674;13.074;2022-09-09T05:08:07;13.00;99.90
20233;DHT22;37438;55.674;13.074;2022-09-09T05:11:18;13.00;99.90
20233;DHT22;37438;55.674;13.074;2022-09-09T05:14:23;13.10;99.90
20233;DHT22;37438;55.674;13.074;2022-09-09T05:17:28;13.10;99.90
20233;DHT22;37438;55.674;13.074;2022-09-09T05:20:33;13.10;99.90
20233;DHT22;37438;55.674;13.074;2022-09-09T05:23:39;13.10;99.90
20233;DHT22;37438;55.674;13.074;2022-09-09T05:26:44;13.10;99.90
20233;DHT22;37438;55.674;13.074;2022-09-09T05:29:48;13.20;99.90
20233;DHT22;37438;55.674;13.074;2022-09-09T05:32:56;13.10;99.90
20233;DHT22;37438;55.674;13.074;2022-09-09T05:36:03;13.20;99.90
20233;DHT22;37438;55.674;13.074;2022-09-09T05:39:08;13.20;99.90
20233;DHT22;37438;55.674;13.074;2022-09-09T05:42:13;13.20;99.90
20233;DHT22;37438;55.674;13.074;2022-09-09T05:45:17;13.20;99.90
20233;DHT22;37438;55.674;13.074;2022-09-09T05:48:21;13.20;99.90
20233;DHT22;37438;55.674;13.074;2022-09-09T05:51:27;13.20;99.90
20233;DHT22;37438;55.674;13.074;2022-09-09T05:54:35;13.20;99.90
20233;DHT22;37438;55.674;13.074;2022-09-09T05:57:41;13.20;99.90
20233;DHT22;37438;55.674;13.074;2022-09-09T06:00:46;13.20;99.90
20233;DHT22;37438;55.674;13.074;2022-09-09T06:03:52;13.20;99.90
20233;DHT22;37438;55.674;13.074;2022-09-09T06:06:59;13.20;99.90
20233;DHT22;37438;55.674;13.074;2022-09-09T06:10:05;13.20;99.90
20233;DHT22;37438;55.674;13.074;2022-09-09T06:13:09;13.20;99.90
20233;DHT22;37438;55.674;13.074;2022-09-09T06:16:17;13.20;99.90
20233;DHT22;37438;55.674;13.074;2022-09-09T06:19:22;13.20;99.90
20233;DHT22;37438;55.674;13.074;2022-09-09T06:22:28;13.20;99.90
20233;DHT22;37438;55.674;13.074;2022-09-09T06:25:33;13.30;99.90
20233;DHT22;37438;55.674;13.074;2022-09-09T06:28:39;13.30;99.90
20233;DHT22;37438;55.674;13.074;2022-09-09T06:31:44;13.30;99.90
20233;DHT22;37438;55.674;13.074;2022-09-09T06:35:00;13.30;99.90
20233;DHT22;37438;55.674;13.074;2022-09-09T06:38:05;13.50;99.90
20233;DHT22;37438;55.674;13.074;2022-09-09T06:41:11;13.30;99.90
20233;DHT22;37438;55.674;13.074;2022-09-09T06:44:16;13.30;99.90
20233;DHT22;37438;55.674;13.074;2022-09-09T06:47:22;13.40;99.90
20233;DHT22;37438;55.674;13.074;2022-09-09T06:50:26;13.40;99.90
20233;DHT22;37438;55.674;13.074;2022-09-09T06:53:31;13.40;99.90
20233;DHT22;37438;55.674;13.074;2022-09-09T06:56:39;13.40;99.90
20233;DHT22;37438;55.674;13.074;2022-09-09T06:59:58;13.40;99.90
20233;DHT22;37438;55.674;13.074;2022-09-09T07:03:02;13.60;99.90
20233;DHT22;37438;55.674;13.074;2022-09-09T07:06:08;13.50;99.90
20233;DHT22;37438;55.674;13.074;2022-09-09T07:09:15;13.60;99.90
20233;DHT22;37438;55.674;13.074;2022-09-09T07:12:23;13.70;99.90
20233;DHT22;37438;55.674;13.074;2022-09-09T07:15:33;13.60;99.90
20233;DHT22;37438;55.674;13.074;2022-09-09T07:18:39;13.60;99.90
20233;DHT22;37438;55.674;13.074;2022-09-09T07:21:44;13.60;99.90
20233;DHT22;37438;55.674;13.074;2022-09-09T07:24:51;13.60;99.90
20233;DHT22;37438;55.674;13.074;2022-09-09T07:27:56;13.70;99.90
20233;DHT22;37438;55.674;13.074;2022-09-09T07:31:01;13.70;99.90
20233;DHT22;37438;55.674;13.074;2022-09-09T07:34:09;13.80;99.90
20233;DHT22;37438;55.674;13.074;2022-09-09T07:37:14;13.80;99.90
20233;DHT22;37438;55.674;13.074;2022-09-09T07:40:21;13.70;99.90
20233;DHT22;37438;55.674;13.074;2022-09-09T07:43:26;13.80;99.90
20233;DHT22;37438;55.674;13.074;2022-09-09T07:46:31;13.80;99.90
20233;DHT22;37438;55.674;13.074;2022-09-09T07:49:37;14.00;99.90
20233;DHT22;37438;55.674;13.074;2022-09-09T07:52:43;13.80;99.90
20233;DHT22;37438;55.674;13.074;2022-09-09T07:55:48;13.80;99.90
20233;DHT22;37438;55.674;13.074;2022-09-09T07:58:54;14.00;99.90
20233;DHT22;37438;55.674;13.074;2022-09-09T08:01:59;14.00;99.90
20233;DHT22;37438;55.674;13.074;2022-09-09T08:05:07;14.10;99.90
20233;DHT22;37438;55.674;13.074;2022-09-09T08:08:13;14.30;99.90
20233;DHT22;37438;55.674;13.074;2022-09-09T08:11:18;14.60;99.90
20233;DHT22;37438;55.674;13.074;2022-09-09T08:14:22;15.00;99.90
20233;DHT22;37438;55.674;13.074;2022-09-09T08:17:27;15.30;99.90
20233;DHT22;37438;55.674;13.074;2022-09-09T08:20:33;15.80;99.90
20233;DHT22;37438;55.674;13.074;2022-09-09T08:23:43;15.80;99.90
20233;DHT22;37438;55.674;13.074;2022-09-09T08:26:49;15.60;99.90
20233;DHT22;37438;55.674;13.074;2022-09-09T08:29:58;15.30;99.90
20233;DHT22;37438;55.674;13.074;2022-09-09T08:33:05;15.20;99.90
20233;DHT22;37438;55.674;13.074;2022-09-09T08:36:15;15.20;99.90
20233;DHT22;37438;55.674;13.074;2022-09-09T08:39:21;15.20;99.90
20233;DHT22;37438;55.674;13.074;2022-09-09T08:42:51;15.30;99.90
20233;DHT22;37438;55.674;13.074;2022-09-09T08:46:09;15.30;99.90
20233;DHT22;37438;55.674;13.074;2022-09-09T08:56:21;16.10;99.90
20233;DHT22;37438;55.674;13.074;2022-09-09T08:59:33;16.30;99.90
20233;DHT22;37438;55.674;13.074;2022-09-09T09:13:54;18.70;99.90
20233;DHT22;37438;55.674;13.074;2022-09-09T09:17:12;18.40;99.90
20233;DHT22;37438;55.674;13.074;2022-09-09T09:20:23;18.60;99.90
20233;DHT22;37438;55.674;13.074;2022-09-09T09:23:41;18.70;99.90
20233;DHT22;37438;55.674;13.074;2022-09-09T09:26:47;18.60;99.90
20233;DHT22;37438;55.674;13.074;2022-09-09T09:29:54;18.80;99.90
20233;DHT22;37438;55.674;13.074;2022-09-09T09:33:44;18.50;99.90
20233;DHT22;37438;55.674;13.074;2022-09-09T09:40:19;18.50;99.90
20233;DHT22;37438;55.674;13.074;2022-09-09T09:46:36;18.40;99.90
20233;DHT22;37438;55.674;13.074;2022-09-09T09:49:57;18.10;99.90
20233;DHT22;37438;55.674;13.074;2022-09-09T09:53:17;18.20;99.90
20233;DHT22;37438;55.674;13.074;2022-09-09T09:56:27;18.50;99.90
20233;DHT22;37438;55.674;13.074;2022-09-09T09:59:39;18.80;99.90
20233;DHT22;37438;55.674;13.074;2022-09-09T10:03:53;19.70;99.90
20233;DHT22;37438;55.674;13.074;2022-09-09T10:06:50;19.80;99.90
20233;DHT22;37438;55.674;13.074;2022-09-09T10:09:56;19.50;99.90
20233;DHT22;37438;55.674;13.074;2022-09-09T10:13:11;19.50;99.90
20233;DHT22;37438;55.674;13.074;2022-09-09T10:20:32;22.80;99.90
20233;DHT22;37438;55.674;13.074;2022-09-09T10:23:35;23.00;99.90
20233;DHT22;37438;55.674;13.074;2022-09-09T10:27:03;22.60;99.90
20233;DHT22;37438;55.674;13.074;2022-09-09T10:30:19;22.30;99.90
20233;DHT22;37438;55.674;13.074;2022-09-09T10:33:42;21.40;99.90
20233;DHT22;37438;55.674;13.074;2022-09-09T10:36:49;20.90;99.90
20233;DHT22;37438;55.674;13.074;2022-09-09T10:50:26;20.40;99.90
20233;DHT22;37438;55.674;13.074;2022-09-09T10:53:57;20.30;99.90
20233;DHT22;37438;55.674;13.074;2022-09-09T10:57:12;20.40;99.90
20233;DHT22;37438;55.674;13.074;2022-09-09T11:00:36;20.30;99.90
20233;DHT22;37438;55.674;13.074;2022-09-09T11:03:43;20.30;99.90
20233;DHT22;37438;55.674;13.074;2022-09-09T11:06:54;20.20;99.90
20233;DHT22;37438;55.674;13.074;2022-09-09T11:10:06;20.10;99.90
20233;DHT22;37438;55.674;13.074;2022-09-09T11:13:42;19.70;99.90
20233;DHT22;37438;55.674;13.074;2022-09-09T11:16:48;19.50;99.90
20233;DHT22;37438;55.674;13.074;2022-09-09T11:19:54;19.40;99.90
20233;DHT22;37438;55.674;13.074;2022-09-09T11:26:07;19.60;99.90
20233;DHT22;37438;55.674;13.074;2022-09-09T11:29:32;19.50;99.90
20233;DHT22;37438;55.674;13.074;2022-09-09T11:40:00;19.10;99.90
20233;DHT22;37438;55.674;13.074;2022-09-09T11:46:34;19.30;99.90
20233;DHT22;37438;55.674;13.074;2022-09-09T11:49:42;19.10;99.90
20233;DHT22;37438;55.674;13.074;2022-09-09T11:52:50;19.30;99.90
20233;DHT22;37438;55.674;13.074;2022-09-09T11:56:07;19.70;99.90
20233;DHT22;37438;55.674;13.074;2022-09-09T11:59:19;19.50;99.90
20233;DHT22;37438;55.674;13.074;2022-09-09T12:02:27;19.50;99.90
20233;DHT22;37438;55.674;13.074;2022-09-09T12:05:41;20.00;99.90
20233;DHT22;37438;55.674;13.074;2022-09-09T12:08:51;19.50;99.90
20233;DHT22;37438;55.674;13.074;2022-09-09T12:15:26;19.30;99.90
20233;DHT22;37438;55.674;13.074;2022-09-09T12:18:37;19.20;99.90
20233;DHT22;37438;55.674;13.074;2022-09-09T12:32:11;20.20;99.90
20233;DHT22;37438;55.674;13.074;2022-09-09T12:35:26;19.50;99.90
20233;DHT22;37438;55.674;13.074;2022-09-09T12:38:32;19.80;99.90
20233;DHT22;37438;55.674;13.074;2022-09-09T12:41:38;21.30;99.90
20233;DHT22;37438;55.674;13.074;2022-09-09T12:44:51;21.50;99.90
20233;DHT22;37438;55.674;13.074;2022-09-09T12:47:58;22.20;99.90
20233;DHT22;37438;55.674;13.074;2022-09-09T12:51:07;22.70;99.90
20233;DHT22;37438;55.674;13.074;2022-09-09T12:54:21;23.20;99.90
20233;DHT22;37438;55.674;13.074;2022-09-09T12:57:33;23.20;99.90
20233;DHT22;37438;55.674;13.074;2022-09-09T13:00:49;23.50;99.90
20233;DHT22;37438;55.674;13.074;2022-09-09T13:03:55;24.00;99.90
20233;DHT22;37438;55.674;13.074;2022-09-09T13:07:09;24.50;99.90
20233;DHT22;37438;55.674;13.074;2022-09-09T13:10:20;24.50;99.90
20233;DHT22;37438;55.674;13.074;2022-09-09T13:13:51;23.50;99.90
20233;DHT22;37438;55.674;13.074;2022-09-09T13:16:59;22.30;99.90
20233;DHT22;37438;55.674;13.074;2022-09-09T13:20:05;22.30;99.90
20233;DHT22;37438;55.674;13.074;2022-09-09T13:23:11;22.50;99.90
20233;DHT22;37438;55.674;13.074;2022-09-09T13:26:23;23.20;99.90
20233;DHT22;37438;55.674;13.074;2022-09-09T13:29:28;23.10;99.90
20233;DHT22;37438;55.674;13.074;2022-09-09T13:32:33;22.30;99.90
20233;DHT22;37438;55.674;13.074;2022-09-09T13:35:54;22.60;99.90
20233;DHT22;37438;55.674;13.074;2022-09-09T13:39:00;22.40;99.90
20233;DHT22;37438;55.674;13.074;2022-09-09T13:42:05;20.80;99.90
20233;DHT22;37438;55.674;13.074;2022-09-09T13:45:19;21.10;99.90
20233;DHT22;37438;55.674;13.074;2022-09-09T13:48:27;22.20;99.90
20233;DHT22;37438;55.674;13.074;2022-09-09T13:51:36;23.10;99.90
20233;DHT22;37438;55.674;13.074;2022-09-09T13:54:41;24.00;99.90
20233;DHT22;37438;55.674;13.074;2022-09-09T14:00:59;24.40;99.90
20233;DHT22;37438;55.674;13.074;2022-09-09T14:04:04;23.70;99.90
20233;DHT22;37438;55.674;13.074;2022-09-09T14:07:13;24.40;99.90
20233;DHT22;37438;55.674;13.074;2022-09-09T14:10:18;24.40;99.90
20233;DHT22;37438;55.674;13.074;2022-09-09T14:13:22;24.90;99.90
20233;DHT22;37438;55.674;13.074;2022-09-09T14:16:27;24.20;99.90
20233;DHT22;37438;55.674;13.074;2022-09-09T14:19:31;23.50;99.90
20233;DHT22;37438;55.674;13.074;2022-09-09T14:22:36;22.10;99.90
20233;DHT22;37438;55.674;13.074;2022-09-09T14:25:42;21.40;99.90
20233;DHT22;37438;55.674;13.074;2022-09-09T14:28:46;20.80;99.90
20233;DHT22;37438;55.674;13.074;2022-09-09T14:31:59;20.70;99.90
20233;DHT22;37438;55.674;13.074;2022-09-09T14:35:05;20.40;99.90
20233;DHT22;37438;55.674;13.074;2022-09-09T14:38:10;20.30;99.90
20233;DHT22;37438;55.674;13.074;2022-09-09T14:41:20;20.10;99.90
20233;DHT22;37438;55.674;13.074;2022-09-09T14:44:26;19.50;99.90
20233;DHT22;37438;55.674;13.074;2022-09-09T14:47:31;19.50;99.90
20233;DHT22;37438;55.674;13.074;2022-09-09T14:50:35;20.50;99.90
20233;DHT22;37438;55.674;13.074;2022-09-09T14:53:44;20.50;99.90
20233;DHT22;37438;55.674;13.074;2022-09-09T14:56:48;19.80;99.90
20233;DHT22;37438;55.674;13.074;2022-09-09T14:59:52;19.70;99.90
20233;DHT22;37438;55.674;13.074;2022-09-09T15:02:57;19.40;99.90
20233;DHT22;37438;55.674;13.074;2022-09-09T15:06:10;19.70;99.90
20233;DHT22;37438;55.674;13.074;2022-09-09T15:09:15;19.10;99.90
20233;DHT22;37438;55.674;13.074;2022-09-09T15:12:19;19.80;99.90
20233;DHT22;37438;55.674;13.074;2022-09-09T15:15:24;20.70;99.90
20233;DHT22;37438;55.674;13.074;2022-09-09T15:18:31;20.30;99.90
20233;DHT22;37438;55.674;13.074;2022-09-09T15:21:37;21.40;99.90
20233;DHT22;37438;55.674;13.074;2022-09-09T15:24:42;22.30;99.90
20233;DHT22;37438;55.674;13.074;2022-09-09T15:27:46;22.60;99.90
20233;DHT22;37438;55.674;13.074;2022-09-09T15:30:52;21.60;99.90
20233;DHT22;37438;55.674;13.074;2022-09-09T15:34:02;22.60;99.90
20233;DHT22;37438;55.674;13.074;2022-09-09T15:37:06;22.90;99.90
20233;DHT22;37438;55.674;13.074;2022-09-09T15:40:14;22.50;99.90
20233;DHT22;37438;55.674;13.074;2022-09-09T15:43:18;22.20;99.90
20233;DHT22;37438;55.674;13.074;2022-09-09T15:49:32;22.80;99.90
20233;DHT22;37438;55.674;13.074;2022-09-09T15:52:37;22.20;99.90
20233;DHT22;37438;55.674;13.074;2022-09-09T15:55:42;20.90;99.90
20233;DHT22;37438;55.674;13.074;2022-09-09T15:58:47;21.00;99.90
20233;DHT22;37438;55.674;13.074;2022-09-09T16:01:51;21.30;99.90
20233;DHT22;37438;55.674;13.074;2022-09-09T16:04:56;21.80;99.90
20233;DHT22;37438;55.674;13.074;2022-09-09T16:08:01;21.60;99.90
20233;DHT22;37438;55.674;13.074;2022-09-09T16:11:08;21.80;99.90
20233;DHT22;37438;55.674;13.074;2022-09-09T16:14:15;21.80;99.90
20233;DHT22;37438;55.674;13.074;2022-09-09T16:17:20;21.80;99.90
20233;DHT22;37438;55.674;13.074;2022-09-09T16:20:25;21.70;99.90
20233;DHT22;37438;55.674;13.074;2022-09-09T16:23:29;21.50;99.90
20233;DHT22;37438;55.674;13.074;2022-09-09T16:26:35;21.50;99.90
20233;DHT22;37438;55.674;13.074;2022-09-09T16:29:40;21.20;99.90
20233;DHT22;37438;55.674;13.074;2022-09-09T16:32:44;21.50;99.90
20233;DHT22;37438;55.674;13.074;2022-09-09T16:35:48;21.10;99.90
20233;DHT22;37438;55.674;13.074;2022-09-09T16:38:58;21.00;99.90
20233;DHT22;37438;55.674;13.074;2022-09-09T16:42:03;20.50;99.90
20233;DHT22;37438;55.674;13.074;2022-09-09T16:45:09;19.30;99.90
20233;DHT22;37438;55.674;13.074;2022-09-09T16:48:13;18.10;99.90
20233;DHT22;37438;55.674;13.074;2022-09-09T16:51:23;17.90;99.90
20233;DHT22;37438;55.674;13.074;2022-09-09T16:54:28;17.60;99.90
20233;DHT22;37438;55.674;13.074;2022-09-09T16:57:33;17.40;99.90
20233;DHT22;37438;55.674;13.074;2022-09-09T17:00:37;17.20;99.90
20233;DHT22;37438;55.674;13.074;2022-09-09T17:03:41;17.20;99.90
20233;DHT22;37438;55.674;13.074;2022-09-09T17:06:47;17.00;99.90
20233;DHT22;37438;55.674;13.074;2022-09-09T17:09:53;16.90;99.90
20233;DHT22;37438;55.674;13.074;2022-09-09T17:12:58;16.90;99.90
20233;DHT22;37438;55.674;13.074;2022-09-09T17:16:04;16.70;99.90
20233;DHT22;37438;55.674;13.074;2022-09-09T17:19:09;16.70;99.90
20233;DHT22;37438;55.674;13.074;2022-09-09T17:22:14;16.70;99.90
20233;DHT22;37438;55.674;13.074;2022-09-09T17:25:21;16.60;99.90
20233;DHT22;37438;55.674;13.074;2022-09-09T17:28:28;16.50;99.90
20233;DHT22;37438;55.674;13.074;2022-09-09T17:31:35;16.40;99.90
20233;DHT22;37438;55.674;13.074;2022-09-09T17:34:39;16.30;99.90
20233;DHT22;37438;55.674;13.074;2022-09-09T17:37:44;16.20;99.90
20233;DHT22;37438;55.674;13.074;2022-09-09T17:40:49;16.10;99.90
20233;DHT22;37438;55.674;13.074;2022-09-09T17:43:53;16.10;99.90
20233;DHT22;37438;55.674;13.074;2022-09-09T17:46:59;16.00;99.90
20233;DHT22;37438;55.674;13.074;2022-09-09T17:50:03;15.90;99.90
20233;DHT22;37438;55.674;13.074;2022-09-09T17:53:08;15.80;99.90
20233;DHT22;37438;55.674;13.074;2022-09-09T17:56:15;15.80;99.90
20233;DHT22;37438;55.674;13.074;2022-09-09T17:59:20;15.70;99.90
20233;DHT22;37438;55.674;13.074;2022-09-09T18:02:24;15.70;99.90
20233;DHT22;37438;55.674;13.074;2022-09-09T18:05:29;15.60;99.90
20233;DHT22;37438;55.674;13.074;2022-09-09T18:08:35;15.60;99.90
20233;DHT22;37438;55.674;13.074;2022-09-09T18:11:43;15.60;99.90
20233;DHT22;37438;55.674;13.074;2022-09-09T18:14:48;15.50;99.90
20233;DHT22;37438;55.674;13.074;2022-09-09T18:17:53;15.50;99.90
20233;DHT22;37438;55.674;13.074;2022-09-09T18:24:04;15.30;99.90
20233;DHT22;37438;55.674;13.074;2022-09-09T18:27:08;15.30;99.90
20233;DHT22;37438;55.674;13.074;2022-09-09T18:30:13;15.20;99.90
20233;DHT22;37438;55.674;13.074;2022-09-09T18:33:17;15.10;99.90
20233;DHT22;37438;55.674;13.074;2022-09-09T18:36:23;15.10;99.90
20233;DHT22;37438;55.674;13.074;2022-09-09T18:39:28;15.00;99.90
20233;DHT22;37438;55.674;13.074;2022-09-09T18:42:33;14.90;99.90
20233;DHT22;37438;55.674;13.074;2022-09-09T18:45:38;14.80;99.90
20233;DHT22;37438;55.674;13.074;2022-09-09T18:48:43;14.80;99.90
20233;DHT22;37438;55.674;13.074;2022-09-09T18:51:49;14.70;99.90
20233;DHT22;37438;55.674;13.074;2022-09-09T18:54:53;14.60;99.90
20233;DHT22;37438;55.674;13.074;2022-09-09T18:57:57;14.60;99.90
20233;DHT22;37438;55.674;13.074;2022-09-09T19:01:03;14.50;99.90
20233;DHT22;37438;55.674;13.074;2022-09-09T19:04:09;14.50;99.90
20233;DHT22;37438;55.674;13.074;2022-09-09T19:07:14;14.40;99.90
20233;DHT22;37438;55.674;13.074;2022-09-09T19:10:19;14.40;99.90
20233;DHT22;37438;55.674;13.074;2022-09-09T19:13:24;14.40;99.90
20233;DHT22;37438;55.674;13.074;2022-09-09T19:16:31;14.40;99.90
20233;DHT22;37438;55.674;13.074;2022-09-09T19:19:36;14.30;99.90
20233;DHT22;37438;55.674;13.074;2022-09-09T19:22:40;14.30;99.90
20233;DHT22;37438;55.674;13.074;2022-09-09T19:25:44;14.20;99.90
20233;DHT22;37438;55.674;13.074;2022-09-09T19:28:49;14.20;99.90
20233;DHT22;37438;55.674;13.074;2022-09-09T19:31:57;14.20;99.90
20233;DHT22;37438;55.674;13.074;2022-09-09T19:35:22;14.30;99.90
20233;DHT22;37438;55.674;13.074;2022-09-09T19:38:28;14.10;99.90
20233;DHT22;37438;55.674;13.074;2022-09-09T19:41:33;14.20;99.90
20233;DHT22;37438;55.674;13.074;2022-09-09T19:44:37;14.10;99.90
20233;DHT22;37438;55.674;13.074;2022-09-09T19:47:42;14.10;99.90
20233;DHT22;37438;55.674;13.074;2022-09-09T19:50:46;14.10;99.90
20233;DHT22;37438;55.674;13.074;2022-09-09T19:53:53;14.00;99.90
20233;DHT22;37438;55.674;13.074;2022-09-09T19:56:59;14.00;99.90
20233;DHT22;37438;55.674;13.074;2022-09-09T20:00:05;14.10;99.90
20233;DHT22;37438;55.674;13.074;2022-09-09T20:03:15;13.90;99.90
20233;DHT22;37438;55.674;13.074;2022-09-09T20:06:25;14.00;99.90
20233;DHT22;37438;55.674;13.074;2022-09-09T20:09:29;13.80;99.90
20233;DHT22;37438;55.674;13.074;2022-09-09T20:12:34;13.70;99.90
20233;DHT22;37438;55.674;13.074;2022-09-09T20:15:38;13.70;99.90
20233;DHT22;37438;55.674;13.074;2022-09-09T20:18:45;13.70;99.90
20233;DHT22;37438;55.674;13.074;2022-09-09T20:21:49;13.80;99.90
20233;DHT22;37438;55.674;13.074;2022-09-09T20:24:55;13.60;99.90
20233;DHT22;37438;55.674;13.074;2022-09-09T20:27:59;13.70;99.90
20233;DHT22;37438;55.674;13.074;2022-09-09T20:34:14;13.60;99.90
20233;DHT22;37438;55.674;13.074;2022-09-09T20:37:19;13.50;99.90
20233;DHT22;37438;55.674;13.074;2022-09-09T20:40:24;13.50;99.90
20233;DHT22;37438;55.674;13.074;2022-09-09T20:43:28;13.50;99.90
20233;DHT22;37438;55.674;13.074;2022-09-09T20:46:34;13.50;99.90
20233;DHT22;37438;55.674;13.074;2022-09-09T20:49:39;13.50;99.90
20233;DHT22;37438;55.674;13.074;2022-09-09T20:52:43;13.50;99.90
20233;DHT22;37438;55.674;13.074;2022-09-09T20:55:48;13.50;99.90
20233;DHT22;37438;55.674;13.074;2022-09-09T20:58:54;13.60;99.90
20233;DHT22;37438;55.674;13.074;2022-09-09T21:01:58;13.50;99.90
20233;DHT22;37438;55.674;13.074;2022-09-09T21:05:05;13.60;99.90
20233;DHT22;37438;55.674;13.074;2022-09-09T21:08:09;13.50;99.90
20233;DHT22;37438;55.674;13.074;2022-09-09T21:11:14;13.70;99.90
20233;DHT22;37438;55.674;13.074;2022-09-09T21:14:19;13.50;99.90
20233;DHT22;37438;55.674;13.074;2022-09-09T21:17:23;13.50;99.90
20233;DHT22;37438;55.674;13.074;2022-09-09T21:20:28;13.40;99.90
20233;DHT22;37438;55.674;13.074;2022-09-09T21:23:32;13.50;99.90